Terminal Aerodrome Forecast
Issued by NWS Amarillo, TX

Home | Current Version | Previous Version | Text Only | Print | Product List | Glossary On
Versions: 1 2 3 4 5 6 7 8 9 10 11 12 13 14 15
957
FTUS44 KAMA 281140
TAFDHT
TAF
KDHT 281140Z 2812/0112 22014KT P6SM OVC250
     FM281500 23037G51KT 5SM BLDU BKN150
     FM010100 29020G30KT P6SM SCT300
     FM010400 35014KT P6SM SKC=

USA.gov is the U.S. government's official web portal to all federal, state and local government web resources and services.